sensor_id;sensor_type;location;lat;lon;timestamp;P1;durP1;ratioP1;P2;durP2;ratioP2
7203;SDS011;3643;52.460;13.322;2024-01-15T00:00:55;13.73;;;8.40;;
7203;SDS011;3643;52.460;13.322;2024-01-15T00:03:23;14.93;;;9.13;;
7203;SDS011;3643;52.460;13.322;2024-01-15T00:05:51;14.30;;;9.10;;
7203;SDS011;3643;52.460;13.322;2024-01-15T00:08:21;12.70;;;8.47;;
7203;SDS011;3643;52.460;13.322;2024-01-15T00:10:48;16.03;;;9.77;;
7203;SDS011;3643;52.460;13.322;2024-01-15T00:13:16;15.63;;;9.57;;
7203;SDS011;3643;52.460;13.322;2024-01-15T00:15:44;14.80;;;8.57;;
7203;SDS011;3643;52.460;13.322;2024-01-15T00:18:12;15.20;;;9.07;;
7203;SDS011;3643;52.460;13.322;2024-01-15T00:20:41;15.07;;;8.87;;
7203;SDS011;3643;52.460;13.322;2024-01-15T00:23:09;15.23;;;8.90;;
7203;SDS011;3643;52.460;13.322;2024-01-15T00:25:38;14.97;;;8.90;;
7203;SDS011;3643;52.460;13.322;2024-01-15T00:28:06;18.63;;;9.37;;
7203;SDS011;3643;52.460;13.322;2024-01-15T00:30:34;16.33;;;10.40;;
7203;SDS011;3643;52.460;13.322;2024-01-15T00:33:02;14.00;;;9.07;;
7203;SDS011;3643;52.460;13.322;2024-01-15T00:35:31;16.43;;;9.73;;
7203;SDS011;3643;52.460;13.322;2024-01-15T00:37:59;16.20;;;9.87;;
7203;SDS011;3643;52.460;13.322;2024-01-15T00:40:27;13.93;;;8.77;;
7203;SDS011;3643;52.460;13.322;2024-01-15T00:42:56;15.73;;;8.90;;
7203;SDS011;3643;52.460;13.322;2024-01-15T00:45:24;14.23;;;9.00;;
7203;SDS011;3643;52.460;13.322;2024-01-15T00:47:52;13.43;;;9.00;;
7203;SDS011;3643;52.460;13.322;2024-01-15T00:50:22;15.93;;;9.23;;
7203;SDS011;3643;52.460;13.322;2024-01-15T00:52:50;14.27;;;8.30;;
7203;SDS011;3643;52.460;13.322;2024-01-15T00:55:18;14.83;;;9.00;;
7203;SDS011;3643;52.460;13.322;2024-01-15T00:57:46;14.47;;;8.57;;
7203;SDS011;3643;52.460;13.322;2024-01-15T01:00:16;14.40;;;8.47;;
7203;SDS011;3643;52.460;13.322;2024-01-15T01:02:44;13.77;;;8.43;;
7203;SDS011;3643;52.460;13.322;2024-01-15T01:05:12;16.63;;;9.03;;
7203;SDS011;3643;52.460;13.322;2024-01-15T01:07:41;15.70;;;8.43;;
7203;SDS011;3643;52.460;13.322;2024-01-15T01:10:09;13.93;;;8.33;;
7203;SDS011;3643;52.460;13.322;2024-01-15T01:12:37;14.33;;;7.87;;
7203;SDS011;3643;52.460;13.322;2024-01-15T01:15:05;16.50;;;8.80;;
7203;SDS011;3643;52.460;13.322;2024-01-15T01:17:35;12.33;;;7.67;;
7203;SDS011;3643;52.460;13.322;2024-01-15T01:20:04;13.67;;;8.53;;
7203;SDS011;3643;52.460;13.322;2024-01-15T01:22:35;13.57;;;8.10;;
7203;SDS011;3643;52.460;13.322;2024-01-15T01:25:04;13.13;;;7.93;;
7203;SDS011;3643;52.460;13.322;2024-01-15T01:27:32;16.37;;;8.77;;
7203;SDS011;3643;52.460;13.322;2024-01-15T01:30:01;13.67;;;8.03;;
7203;SDS011;3643;52.460;13.322;2024-01-15T01:32:29;13.53;;;8.63;;
7203;SDS011;3643;52.460;13.322;2024-01-15T01:34:58;14.10;;;8.83;;
7203;SDS011;3643;52.460;13.322;2024-01-15T01:37:27;14.60;;;8.30;;
7203;SDS011;3643;52.460;13.322;2024-01-15T01:39:55;15.20;;;9.20;;
7203;SDS011;3643;52.460;13.322;2024-01-15T01:42:23;17.50;;;9.97;;
7203;SDS011;3643;52.460;13.322;2024-01-15T01:44:51;15.17;;;9.03;;
7203;SDS011;3643;52.460;13.322;2024-01-15T01:47:19;16.87;;;10.40;;
7203;SDS011;3643;52.460;13.322;2024-01-15T01:49:47;15.43;;;9.93;;
7203;SDS011;3643;52.460;13.322;2024-01-15T01:52:16;16.50;;;9.47;;
7203;SDS011;3643;52.460;13.322;2024-01-15T01:54:44;16.87;;;10.33;;
7203;SDS011;3643;52.460;13.322;2024-01-15T01:57:12;15.70;;;9.53;;
7203;SDS011;3643;52.460;13.322;2024-01-15T01:59:42;19.83;;;10.70;;
7203;SDS011;3643;52.460;13.322;2024-01-15T02:02:10;16.93;;;10.10;;
7203;SDS011;3643;52.460;13.322;2024-01-15T02:04:39;18.70;;;10.17;;
7203;SDS011;3643;52.460;13.322;2024-01-15T02:07:07;18.50;;;10.50;;
7203;SDS011;3643;52.460;13.322;2024-01-15T02:09:37;16.53;;;9.63;;
7203;SDS011;3643;52.460;13.322;2024-01-15T02:12:06;16.47;;;9.93;;
7203;SDS011;3643;52.460;13.322;2024-01-15T02:14:34;17.73;;;10.23;;
7203;SDS011;3643;52.460;13.322;2024-01-15T02:17:02;19.33;;;9.63;;
7203;SDS011;3643;52.460;13.322;2024-01-15T02:19:31;17.73;;;10.17;;
7203;SDS011;3643;52.460;13.322;2024-01-15T02:21:59;19.93;;;10.23;;
7203;SDS011;3643;52.460;13.322;2024-01-15T02:24:28;15.70;;;9.20;;
7203;SDS011;3643;52.460;13.322;2024-01-15T02:26:56;18.33;;;10.23;;
7203;SDS011;3643;52.460;13.322;2024-01-15T02:29:24;18.57;;;9.50;;
7203;SDS011;3643;52.460;13.322;2024-01-15T02:31:53;16.30;;;8.87;;
7203;SDS011;3643;52.460;13.322;2024-01-15T02:34:21;16.07;;;8.20;;
7203;SDS011;3643;52.460;13.322;2024-01-15T02:36:49;18.03;;;8.73;;
7203;SDS011;3643;52.460;13.322;2024-01-15T02:39:17;18.50;;;8.70;;
7203;SDS011;3643;52.460;13.322;2024-01-15T02:41:46;16.17;;;8.90;;
7203;SDS011;3643;52.460;13.322;2024-01-15T02:44:14;16.27;;;8.27;;
7203;SDS011;3643;52.460;13.322;2024-01-15T02:46:42;15.53;;;8.83;;
7203;SDS011;3643;52.460;13.322;2024-01-15T02:49:10;13.83;;;8.10;;
7203;SDS011;3643;52.460;13.322;2024-01-15T02:51:38;16.53;;;9.27;;
7203;SDS011;3643;52.460;13.322;2024-01-15T02:54:06;17.30;;;9.03;;
7203;SDS011;3643;52.460;13.322;2024-01-15T02:56:34;18.00;;;9.70;;
7203;SDS011;3643;52.460;13.322;2024-01-15T02:59:04;15.93;;;9.57;;
7203;SDS011;3643;52.460;13.322;2024-01-15T03:01:32;18.73;;;9.50;;
7203;SDS011;3643;52.460;13.322;2024-01-15T03:04:00;15.97;;;9.20;;
7203;SDS011;3643;52.460;13.322;2024-01-15T03:06:28;18.90;;;9.80;;
7203;SDS011;3643;52.460;13.322;2024-01-15T03:08:56;15.83;;;8.73;;
7203;SDS011;3643;52.460;13.322;2024-01-15T03:11:24;18.20;;;8.80;;
7203;SDS011;3643;52.460;13.322;2024-01-15T03:13:53;15.90;;;8.23;;
7203;SDS011;3643;52.460;13.322;2024-01-15T03:16:22;15.50;;;7.90;;
7203;SDS011;3643;52.460;13.322;2024-01-15T03:18:50;17.33;;;8.87;;
7203;SDS011;3643;52.460;13.322;2024-01-15T03:21:18;13.97;;;7.40;;
7203;SDS011;3643;52.460;13.322;2024-01-15T03:23:46;14.83;;;7.63;;
7203;SDS011;3643;52.460;13.322;2024-01-15T03:26:14;15.20;;;7.77;;
7203;SDS011;3643;52.460;13.322;2024-01-15T03:28:42;13.63;;;7.17;;
7203;SDS011;3643;52.460;13.322;2024-01-15T03:31:10;14.67;;;7.60;;
7203;SDS011;3643;52.460;13.322;2024-01-15T03:33:40;10.87;;;6.83;;
7203;SDS011;3643;52.460;13.322;2024-01-15T03:36:09;14.67;;;7.80;;
7203;SDS011;3643;52.460;13.322;2024-01-15T03:38:39;12.90;;;7.13;;
7203;SDS011;3643;52.460;13.322;2024-01-15T03:41:08;14.27;;;7.47;;
7203;SDS011;3643;52.460;13.322;2024-01-15T03:43:36;12.70;;;7.00;;
7203;SDS011;3643;52.460;13.322;2024-01-15T03:46:04;11.97;;;6.90;;
7203;SDS011;3643;52.460;13.322;2024-01-15T03:48:32;14.00;;;6.13;;
7203;SDS011;3643;52.460;13.322;2024-01-15T03:51:02;15.03;;;6.87;;
7203;SDS011;3643;52.460;13.322;2024-01-15T03:53:30;16.47;;;6.90;;
7203;SDS011;3643;52.460;13.322;2024-01-15T03:55:58;12.33;;;6.43;;
7203;SDS011;3643;52.460;13.322;2024-01-15T03:58:26;11.67;;;6.90;;
7203;SDS011;3643;52.460;13.322;2024-01-15T04:00:54;12.60;;;6.63;;
7203;SDS011;3643;52.460;13.322;2024-01-15T04:03:22;11.60;;;5.90;;
7203;SDS011;3643;52.460;13.322;2024-01-15T04:05:50;9.63;;;5.40;;
7203;SDS011;3643;52.460;13.322;2024-01-15T04:08:20;13.43;;;5.77;;
7203;SDS011;3643;52.460;13.322;2024-01-15T04:10:48;17.67;;;5.57;;
7203;SDS011;3643;52.460;13.322;2024-01-15T04:13:16;17.67;;;5.60;;
7203;SDS011;3643;52.460;13.322;2024-01-15T04:15:44;12.07;;;5.80;;
7203;SDS011;3643;52.460;13.322;2024-01-15T04:18:12;10.77;;;5.10;;
7203;SDS011;3643;52.460;13.322;2024-01-15T04:20:40;12.00;;;5.63;;
7203;SDS011;3643;52.460;13.322;2024-01-15T04:23:08;10.17;;;5.73;;
7203;SDS011;3643;52.460;13.322;2024-01-15T04:25:37;10.27;;;5.00;;
7203;SDS011;3643;52.460;13.322;2024-01-15T04:28:07;8.97;;;4.70;;
7203;SDS011;3643;52.460;13.322;2024-01-15T04:30:35;12.93;;;5.13;;
7203;SDS011;3643;52.460;13.322;2024-01-15T04:33:03;8.70;;;4.23;;
7203;SDS011;3643;52.460;13.322;2024-01-15T04:35:32;9.77;;;4.37;;
7203;SDS011;3643;52.460;13.322;2024-01-15T04:38:01;11.50;;;4.13;;
7203;SDS011;3643;52.460;13.322;2024-01-15T04:40:29;10.33;;;4.60;;
7203;SDS011;3643;52.460;13.322;2024-01-15T04:42:58;7.57;;;4.03;;
7203;SDS011;3643;52.460;13.322;2024-01-15T04:45:26;7.77;;;3.87;;
7203;SDS011;3643;52.460;13.322;2024-01-15T04:47:55;10.27;;;4.10;;
7203;SDS011;3643;52.460;13.322;2024-01-15T04:50:24;7.33;;;3.50;;
7203;SDS011;3643;52.460;13.322;2024-01-15T04:52:52;4.43;;;3.03;;
7203;SDS011;3643;52.460;13.322;2024-01-15T04:55:20;9.50;;;3.73;;
7203;SDS011;3643;52.460;13.322;2024-01-15T04:57:48;6.97;;;3.20;;
7203;SDS011;3643;52.460;13.322;2024-01-15T05:00:17;11.83;;;3.57;;
7203;SDS011;3643;52.460;13.322;2024-01-15T05:02:46;9.27;;;3.37;;
7203;SDS011;3643;52.460;13.322;2024-01-15T05:05:14;6.00;;;3.00;;
7203;SDS011;3643;52.460;13.322;2024-01-15T05:07:42;6.10;;;3.33;;
7203;SDS011;3643;52.460;13.322;2024-01-15T05:10:10;9.57;;;3.00;;
7203;SDS011;3643;52.460;13.322;2024-01-15T05:12:38;13.77;;;3.30;;
7203;SDS011;3643;52.460;13.322;2024-01-15T05:15:06;9.57;;;3.33;;
7203;SDS011;3643;52.460;13.322;2024-01-15T05:17:37;9.73;;;3.57;;
7203;SDS011;3643;52.460;13.322;2024-01-15T05:20:05;8.47;;;3.23;;
7203;SDS011;3643;52.460;13.322;2024-01-15T05:22:34;8.07;;;3.33;;
7203;SDS011;3643;52.460;13.322;2024-01-15T05:25:02;9.33;;;3.10;;
7203;SDS011;3643;52.460;13.322;2024-01-15T05:27:31;8.13;;;2.83;;
7203;SDS011;3643;52.460;13.322;2024-01-15T05:29:59;5.43;;;2.83;;
7203;SDS011;3643;52.460;13.322;2024-01-15T05:32:27;9.43;;;3.07;;
7203;SDS011;3643;52.460;13.322;2024-01-15T05:34:57;7.70;;;2.80;;
7203;SDS011;3643;52.460;13.322;2024-01-15T05:37:25;10.43;;;3.70;;
7203;SDS011;3643;52.460;13.322;2024-01-15T05:39:53;6.77;;;2.57;;
7203;SDS011;3643;52.460;13.322;2024-01-15T05:42:21;7.83;;;2.87;;
7203;SDS011;3643;52.460;13.322;2024-01-15T05:44:49;8.63;;;2.77;;
7203;SDS011;3643;52.460;13.322;2024-01-15T05:47:17;4.23;;;2.53;;
7203;SDS011;3643;52.460;13.322;2024-01-15T05:49:46;6.13;;;2.57;;
7203;SDS011;3643;52.460;13.322;2024-01-15T05:52:15;17.07;;;3.97;;
7203;SDS011;3643;52.460;13.322;2024-01-15T05:54:43;6.83;;;2.73;;
7203;SDS011;3643;52.460;13.322;2024-01-15T05:57:11;7.93;;;2.80;;
7203;SDS011;3643;52.460;13.322;2024-01-15T05:59:39;6.77;;;2.23;;
7203;SDS011;3643;52.460;13.322;2024-01-15T06:02:07;9.77;;;2.87;;
7203;SDS011;3643;52.460;13.322;2024-01-15T06:04:35;8.83;;;2.57;;
7203;SDS011;3643;52.460;13.322;2024-01-15T06:07:04;6.37;;;2.60;;
7203;SDS011;3643;52.460;13.322;2024-01-15T06:09:33;8.63;;;2.60;;
7203;SDS011;3643;52.460;13.322;2024-01-15T06:12:01;8.47;;;2.60;;
7203;SDS011;3643;52.460;13.322;2024-01-15T06:14:29;15.10;;;3.00;;
7203;SDS011;3643;52.460;13.322;2024-01-15T06:16:57;3.87;;;2.23;;
7203;SDS011;3643;52.460;13.322;2024-01-15T06:19:25;5.87;;;2.53;;
7203;SDS011;3643;52.460;13.322;2024-01-15T06:21:53;6.73;;;2.60;;
7203;SDS011;3643;52.460;13.322;2024-01-15T06:24:21;10.30;;;3.03;;
7203;SDS011;3643;52.460;13.322;2024-01-15T06:26:51;5.03;;;2.63;;
7203;SDS011;3643;52.460;13.322;2024-01-15T06:29:18;11.00;;;2.77;;
7203;SDS011;3643;52.460;13.322;2024-01-15T06:31:46;7.80;;;3.77;;
7203;SDS011;3643;52.460;13.322;2024-01-15T06:34:15;6.50;;;2.30;;
7203;SDS011;3643;52.460;13.322;2024-01-15T06:36:43;8.83;;;2.40;;
7203;SDS011;3643;52.460;13.322;2024-01-15T06:39:11;9.87;;;2.70;;
7203;SDS011;3643;52.460;13.322;2024-01-15T06:41:39;12.43;;;2.67;;
7203;SDS011;3643;52.460;13.322;2024-01-15T06:44:11;7.40;;;3.20;;
7203;SDS011;3643;52.460;13.322;2024-01-15T06:46:41;8.77;;;2.33;;
7203;SDS011;3643;52.460;13.322;2024-01-15T06:49:10;5.83;;;1.90;;
7203;SDS011;3643;52.460;13.322;2024-01-15T06:51:39;9.57;;;2.50;;
7203;SDS011;3643;52.460;13.322;2024-01-15T06:54:08;5.70;;;2.13;;
7203;SDS011;3643;52.460;13.322;2024-01-15T06:56:36;13.90;;;2.97;;
7203;SDS011;3643;52.460;13.322;2024-01-15T06:59:04;10.10;;;4.57;;
7203;SDS011;3643;52.460;13.322;2024-01-15T07:01:34;6.97;;;2.33;;
7203;SDS011;3643;52.460;13.322;2024-01-15T07:04:02;3.70;;;1.70;;
7203;SDS011;3643;52.460;13.322;2024-01-15T07:06:30;8.30;;;1.90;;
7203;SDS011;3643;52.460;13.322;2024-01-15T07:08:58;9.00;;;2.30;;
7203;SDS011;3643;52.460;13.322;2024-01-15T07:11:26;7.77;;;2.10;;
7203;SDS011;3643;52.460;13.322;2024-01-15T07:13:54;10.90;;;1.90;;
7203;SDS011;3643;52.460;13.322;2024-01-15T07:16:22;6.03;;;2.10;;
7203;SDS011;3643;52.460;13.322;2024-01-15T07:19:04;8.73;;;2.07;;
7203;SDS011;3643;52.460;13.322;2024-01-15T07:21:32;5.80;;;2.17;;
7203;SDS011;3643;52.460;13.322;2024-01-15T07:24:01;9.03;;;2.47;;
7203;SDS011;3643;52.460;13.322;2024-01-15T07:26:29;3.60;;;1.80;;
7203;SDS011;3643;52.460;13.322;2024-01-15T07:28:57;10.30;;;2.00;;
7203;SDS011;3643;52.460;13.322;2024-01-15T07:31:26;9.93;;;2.10;;
7203;SDS011;3643;52.460;13.322;2024-01-15T07:33:54;5.73;;;1.93;;
7203;SDS011;3643;52.460;13.322;2024-01-15T07:36:24;11.90;;;1.93;;
7203;SDS011;3643;52.460;13.322;2024-01-15T07:38:52;8.47;;;1.83;;
7203;SDS011;3643;52.460;13.322;2024-01-15T07:41:20;4.77;;;2.00;;
7203;SDS011;3643;52.460;13.322;2024-01-15T07:43:48;11.13;;;2.00;;
7203;SDS011;3643;52.460;13.322;2024-01-15T07:46:16;4.90;;;1.60;;
7203;SDS011;3643;52.460;13.322;2024-01-15T07:48:44;8.97;;;2.00;;
7203;SDS011;3643;52.460;13.322;2024-01-15T07:51:12;8.43;;;2.07;;
7203;SDS011;3643;52.460;13.322;2024-01-15T07:53:42;4.33;;;1.90;;
7203;SDS011;3643;52.460;13.322;2024-01-15T07:56:10;12.67;;;2.20;;
7203;SDS011;3643;52.460;13.322;2024-01-15T07:58:38;9.63;;;1.90;;
7203;SDS011;3643;52.460;13.322;2024-01-15T08:01:06;9.07;;;2.43;;
7203;SDS011;3643;52.460;13.322;2024-01-15T08:03:35;12.47;;;2.23;;
7203;SDS011;3643;52.460;13.322;2024-01-15T08:06:04;12.93;;;2.93;;
7203;SDS011;3643;52.460;13.322;2024-01-15T08:08:36;7.33;;;2.00;;
7203;SDS011;3643;52.460;13.322;2024-01-15T08:11:06;5.10;;;1.63;;
7203;SDS011;3643;52.460;13.322;2024-01-15T08:13:34;10.93;;;2.40;;
7203;SDS011;3643;52.460;13.322;2024-01-15T08:16:02;6.37;;;2.27;;
7203;SDS011;3643;52.460;13.322;2024-01-15T08:18:31;10.03;;;2.17;;
7203;SDS011;3643;52.460;13.322;2024-01-15T08:20:59;6.07;;;2.00;;
7203;SDS011;3643;52.460;13.322;2024-01-15T08:23:27;5.97;;;1.97;;
7203;SDS011;3643;52.460;13.322;2024-01-15T08:25:57;6.20;;;2.00;;
7203;SDS011;3643;52.460;13.322;2024-01-15T08:28:27;10.50;;;2.03;;
7203;SDS011;3643;52.460;13.322;2024-01-15T08:30:55;5.47;;;2.03;;
7203;SDS011;3643;52.460;13.322;2024-01-15T08:33:23;4.53;;;1.57;;
7203;SDS011;3643;52.460;13.322;2024-01-15T08:35:51;8.77;;;2.37;;
7203;SDS011;3643;52.460;13.322;2024-01-15T08:38:19;7.20;;;1.80;;
7203;SDS011;3643;52.460;13.322;2024-01-15T08:40:48;7.50;;;1.93;;
7203;SDS011;3643;52.460;13.322;2024-01-15T08:43:17;7.70;;;3.00;;
7203;SDS011;3643;52.460;13.322;2024-01-15T08:45:46;4.93;;;1.73;;
7203;SDS011;3643;52.460;13.322;2024-01-15T08:48:15;6.27;;;1.83;;
7203;SDS011;3643;52.460;13.322;2024-01-15T08:50:46;7.73;;;2.17;;
7203;SDS011;3643;52.460;13.322;2024-01-15T08:53:17;8.67;;;2.13;;
7203;SDS011;3643;52.460;13.322;2024-01-15T08:55:45;5.63;;;1.90;;
7203;SDS011;3643;52.460;13.322;2024-01-15T08:58:13;8.00;;;1.97;;
7203;SDS011;3643;52.460;13.322;2024-01-15T09:00:41;4.60;;;1.87;;
7203;SDS011;3643;52.460;13.322;2024-01-15T09:03:10;8.47;;;2.17;;
7203;SDS011;3643;52.460;13.322;2024-01-15T09:05:38;9.37;;;2.23;;
7203;SDS011;3643;52.460;13.322;2024-01-15T09:08:07;6.67;;;2.17;;
7203;SDS011;3643;52.460;13.322;2024-01-15T09:10:35;8.60;;;2.00;;
7203;SDS011;3643;52.460;13.322;2024-01-15T09:13:03;4.17;;;1.87;;
7203;SDS011;3643;52.460;13.322;2024-01-15T09:15:31;9.67;;;1.97;;
7203;SDS011;3643;52.460;13.322;2024-01-15T09:18:00;10.93;;;3.03;;
7203;SDS011;3643;52.460;13.322;2024-01-15T09:20:34;7.93;;;1.87;;
7203;SDS011;3643;52.460;13.322;2024-01-15T09:23:04;6.77;;;1.80;;
7203;SDS011;3643;52.460;13.322;2024-01-15T09:25:32;11.93;;;2.90;;
7203;SDS011;3643;52.460;13.322;2024-01-15T09:28:00;7.03;;;2.10;;
7203;SDS011;3643;52.460;13.322;2024-01-15T09:30:28;6.20;;;2.00;;
7203;SDS011;3643;52.460;13.322;2024-01-15T09:32:57;13.17;;;2.17;;
7203;SDS011;3643;52.460;13.322;2024-01-15T09:35:25;4.40;;;1.67;;
7203;SDS011;3643;52.460;13.322;2024-01-15T09:37:54;6.43;;;2.07;;
7203;SDS011;3643;52.460;13.322;2024-01-15T09:40:22;7.47;;;2.23;;
7203;SDS011;3643;52.460;13.322;2024-01-15T09:42:52;8.03;;;2.33;;
7203;SDS011;3643;52.460;13.322;2024-01-15T09:45:21;7.13;;;2.17;;
7203;SDS011;3643;52.460;13.322;2024-01-15T09:47:49;8.97;;;2.10;;
7203;SDS011;3643;52.460;13.322;2024-01-15T09:50:17;7.47;;;2.60;;
7203;SDS011;3643;52.460;13.322;2024-01-15T09:52:46;6.50;;;1.90;;
7203;SDS011;3643;52.460;13.322;2024-01-15T09:55:18;3.30;;;1.93;;
7203;SDS011;3643;52.460;13.322;2024-01-15T09:57:46;4.50;;;1.97;;
7203;SDS011;3643;52.460;13.322;2024-01-15T10:00:15;4.23;;;1.97;;
7203;SDS011;3643;52.460;13.322;2024-01-15T10:02:46;7.60;;;2.17;;
7203;SDS011;3643;52.460;13.322;2024-01-15T10:05:14;4.83;;;1.87;;
7203;SDS011;3643;52.460;13.322;2024-01-15T10:07:42;7.40;;;3.20;;
7203;SDS011;3643;52.460;13.322;2024-01-15T10:10:13;5.93;;;2.40;;
7203;SDS011;3643;52.460;13.322;2024-01-15T10:12:42;5.50;;;1.97;;
7203;SDS011;3643;52.460;13.322;2024-01-15T10:15:11;13.80;;;6.17;;
7203;SDS011;3643;52.460;13.322;2024-01-15T10:17:39;7.37;;;2.37;;
7203;SDS011;3643;52.460;13.322;2024-01-15T10:20:09;6.47;;;2.10;;
7203;SDS011;3643;52.460;13.322;2024-01-15T10:22:39;8.17;;;2.20;;
7203;SDS011;3643;52.460;13.322;2024-01-15T10:25:10;4.97;;;1.83;;
7203;SDS011;3643;52.460;13.322;2024-01-15T10:27:38;3.07;;;1.80;;
7203;SDS011;3643;52.460;13.322;2024-01-15T10:30:08;4.20;;;1.97;;
7203;SDS011;3643;52.460;13.322;2024-01-15T10:32:37;5.03;;;1.80;;
7203;SDS011;3643;52.460;13.322;2024-01-15T10:35:07;4.63;;;2.03;;
7203;SDS011;3643;52.460;13.322;2024-01-15T10:37:35;2.90;;;1.60;;
7203;SDS011;3643;52.460;13.322;2024-01-15T10:40:03;5.13;;;2.07;;
7203;SDS011;3643;52.460;13.322;2024-01-15T10:42:32;5.07;;;1.73;;
7203;SDS011;3643;52.460;13.322;2024-01-15T10:45:00;6.43;;;1.77;;
7203;SDS011;3643;52.460;13.322;2024-01-15T10:47:30;4.30;;;2.50;;
7203;SDS011;3643;52.460;13.322;2024-01-15T10:49:58;5.17;;;1.80;;
7203;SDS011;3643;52.460;13.322;2024-01-15T10:52:27;4.80;;;1.70;;
7203;SDS011;3643;52.460;13.322;2024-01-15T10:54:55;4.13;;;1.70;;
7203;SDS011;3643;52.460;13.322;2024-01-15T10:57:25;4.23;;;1.60;;
7203;SDS011;3643;52.460;13.322;2024-01-15T10:59:54;5.03;;;1.57;;
7203;SDS011;3643;52.460;13.322;2024-01-15T11:02:22;3.63;;;1.67;;
7203;SDS011;3643;52.460;13.322;2024-01-15T11:04:53;4.27;;;1.40;;
7203;SDS011;3643;52.460;13.322;2024-01-15T11:07:21;3.97;;;1.60;;
7203;SDS011;3643;52.460;13.322;2024-01-15T11:09:54;3.60;;;1.50;;
7203;SDS011;3643;52.460;13.322;2024-01-15T11:12:25;3.90;;;1.30;;
7203;SDS011;3643;52.460;13.322;2024-01-15T11:15:00;2.93;;;1.40;;
7203;SDS011;3643;52.460;13.322;2024-01-15T11:20:28;4.70;;;1.37;;
7203;SDS011;3643;52.460;13.322;2024-01-15T11:22:57;3.47;;;1.40;;
7203;SDS011;3643;52.460;13.322;2024-01-15T11:25:30;1.90;;;1.23;;
7203;SDS011;3643;52.460;13.322;2024-01-15T11:28:03;5.67;;;1.50;;
7203;SDS011;3643;52.460;13.322;2024-01-15T11:30:32;4.70;;;1.50;;
7203;SDS011;3643;52.460;13.322;2024-01-15T11:33:03;2.37;;;1.30;;
7203;SDS011;3643;52.460;13.322;2024-01-15T11:35:50;3.40;;;1.47;;
7203;SDS011;3643;52.460;13.322;2024-01-15T11:38:26;1.53;;;1.27;;
7203;SDS011;3643;52.460;13.322;2024-01-15T11:40:55;1.73;;;1.60;;
7203;SDS011;3643;52.460;13.322;2024-01-15T11:43:25;3.23;;;1.57;;
7203;SDS011;3643;52.460;13.322;2024-01-15T11:45:55;1.93;;;1.30;;
7203;SDS011;3643;52.460;13.322;2024-01-15T11:48:24;3.07;;;1.70;;
7203;SDS011;3643;52.460;13.322;2024-01-15T11:51:10;2.20;;;1.70;;
7203;SDS011;3643;52.460;13.322;2024-01-15T11:53:42;4.03;;;1.70;;
7203;SDS011;3643;52.460;13.322;2024-01-15T11:56:14;4.93;;;1.80;;
7203;SDS011;3643;52.460;13.322;2024-01-15T11:58:43;3.00;;;1.80;;
7203;SDS011;3643;52.460;13.322;2024-01-15T12:01:12;2.07;;;1.60;;
7203;SDS011;3643;52.460;13.322;2024-01-15T12:03:40;1.93;;;1.60;;
7203;SDS011;3643;52.460;13.322;2024-01-15T12:06:10;2.53;;;1.50;;
7203;SDS011;3643;52.460;13.322;2024-01-15T12:08:38;5.73;;;1.80;;
7203;SDS011;3643;52.460;13.322;2024-01-15T12:11:06;3.80;;;1.57;;
7203;SDS011;3643;52.460;13.322;2024-01-15T12:13:40;3.43;;;1.67;;
7203;SDS011;3643;52.460;13.322;2024-01-15T12:16:08;1.63;;;1.53;;
7203;SDS011;3643;52.460;13.322;2024-01-15T12:18:36;2.50;;;1.50;;
7203;SDS011;3643;52.460;13.322;2024-01-15T12:21:04;2.77;;;1.70;;
7203;SDS011;3643;52.460;13.322;2024-01-15T12:23:34;2.60;;;1.40;;
7203;SDS011;3643;52.460;13.322;2024-01-15T12:26:02;2.33;;;1.60;;
7203;SDS011;3643;52.460;13.322;2024-01-15T12:28:31;2.40;;;1.80;;
7203;SDS011;3643;52.460;13.322;2024-01-15T12:30:59;2.43;;;1.87;;
7203;SDS011;3643;52.460;13.322;2024-01-15T12:33:32;4.37;;;1.80;;
7203;SDS011;3643;52.460;13.322;2024-01-15T12:36:01;2.30;;;1.50;;
7203;SDS011;3643;52.460;13.322;2024-01-15T12:38:29;1.77;;;1.60;;
7203;SDS011;3643;52.460;13.322;2024-01-15T12:41:01;1.57;;;1.47;;
7203;SDS011;3643;52.460;13.322;2024-01-15T12:43:29;3.53;;;2.00;;
7203;SDS011;3643;52.460;13.322;2024-01-15T12:45:57;2.30;;;2.10;;
7203;SDS011;3643;52.460;13.322;2024-01-15T12:48:25;1.57;;;1.30;;
7203;SDS011;3643;52.460;13.322;2024-01-15T12:50:55;1.47;;;1.37;;
7203;SDS011;3643;52.460;13.322;2024-01-15T12:53:23;1.73;;;1.40;;
7203;SDS011;3643;52.460;13.322;2024-01-15T12:55:51;1.60;;;1.50;;
7203;SDS011;3643;52.460;13.322;2024-01-15T12:58:21;4.13;;;1.80;;
7203;SDS011;3643;52.460;13.322;2024-01-15T13:00:49;1.90;;;1.60;;
7203;SDS011;3643;52.460;13.322;2024-01-15T13:03:17;3.27;;;1.83;;
7203;SDS011;3643;52.460;13.322;2024-01-15T13:05:45;2.33;;;1.60;;
7203;SDS011;3643;52.460;13.322;2024-01-15T13:08:14;3.97;;;2.00;;
7203;SDS011;3643;52.460;13.322;2024-01-15T13:10:42;1.63;;;1.53;;
7203;SDS011;3643;52.460;13.322;2024-01-15T13:13:10;2.87;;;1.50;;
7203;SDS011;3643;52.460;13.322;2024-01-15T13:15:40;1.90;;;1.50;;
7203;SDS011;3643;52.460;13.322;2024-01-15T13:18:09;1.23;;;1.20;;
7203;SDS011;3643;52.460;13.322;2024-01-15T13:20:37;2.53;;;1.60;;
7203;SDS011;3643;52.460;13.322;2024-01-15T13:23:05;1.63;;;1.53;;
7203;SDS011;3643;52.460;13.322;2024-01-15T13:25:33;3.67;;;1.60;;
7203;SDS011;3643;52.460;13.322;2024-01-15T13:28:04;2.17;;;1.50;;
7203;SDS011;3643;52.460;13.322;2024-01-15T13:30:32;4.17;;;1.90;;
7203;SDS011;3643;52.460;13.322;2024-01-15T13:33:02;2.37;;;1.67;;
7203;SDS011;3643;52.460;13.322;2024-01-15T13:35:31;2.87;;;1.80;;
7203;SDS011;3643;52.460;13.322;2024-01-15T13:37:59;3.33;;;1.70;;
7203;SDS011;3643;52.460;13.322;2024-01-15T13:40:27;2.87;;;1.40;;
7203;SDS011;3643;52.460;13.322;2024-01-15T13:42:55;3.23;;;1.53;;
7203;SDS011;3643;52.460;13.322;2024-01-15T13:45:24;4.63;;;1.87;;
7203;SDS011;3643;52.460;13.322;2024-01-15T13:47:52;4.83;;;2.03;;
7203;SDS011;3643;52.460;13.322;2024-01-15T13:50:21;3.73;;;1.97;;
7203;SDS011;3643;52.460;13.322;2024-01-15T13:52:51;5.30;;;2.03;;
7203;SDS011;3643;52.460;13.322;2024-01-15T13:55:19;2.93;;;1.87;;
7203;SDS011;3643;52.460;13.322;2024-01-15T13:57:47;3.37;;;1.80;;
7203;SDS011;3643;52.460;13.322;2024-01-15T14:00:15;3.47;;;1.77;;
7203;SDS011;3643;52.460;13.322;2024-01-15T14:02:46;3.87;;;1.90;;
7203;SDS011;3643;52.460;13.322;2024-01-15T14:05:14;4.37;;;1.70;;
7203;SDS011;3643;52.460;13.322;2024-01-15T14:07:44;3.83;;;1.90;;
7203;SDS011;3643;52.460;13.322;2024-01-15T14:10:12;2.97;;;1.90;;
7203;SDS011;3643;52.460;13.322;2024-01-15T14:12:40;5.97;;;2.43;;
7203;SDS011;3643;52.460;13.322;2024-01-15T14:15:09;3.70;;;2.40;;
7203;SDS011;3643;52.460;13.322;2024-01-15T14:17:37;6.93;;;2.37;;
7203;SDS011;3643;52.460;13.322;2024-01-15T14:20:06;4.47;;;1.97;;
7203;SDS011;3643;52.460;13.322;2024-01-15T14:22:36;3.57;;;1.93;;
7203;SDS011;3643;52.460;13.322;2024-01-15T14:25:05;5.80;;;2.10;;
7203;SDS011;3643;52.460;13.322;2024-01-15T14:27:34;3.10;;;2.23;;
7203;SDS011;3643;52.460;13.322;2024-01-15T14:30:03;6.87;;;2.30;;
7203;SDS011;3643;52.460;13.322;2024-01-15T14:32:34;4.40;;;2.00;;
7203;SDS011;3643;52.460;13.322;2024-01-15T14:35:03;5.30;;;1.80;;
7203;SDS011;3643;52.460;13.322;2024-01-15T14:37:32;7.10;;;2.37;;
7203;SDS011;3643;52.460;13.322;2024-01-15T14:40:00;5.73;;;2.13;;
7203;SDS011;3643;52.460;13.322;2024-01-15T14:42:30;5.00;;;1.80;;
7203;SDS011;3643;52.460;13.322;2024-01-15T14:44:58;9.53;;;2.33;;
7203;SDS011;3643;52.460;13.322;2024-01-15T14:47:27;3.77;;;1.67;;
7203;SDS011;3643;52.460;13.322;2024-01-15T14:49:55;7.33;;;1.43;;
7203;SDS011;3643;52.460;13.322;2024-01-15T14:52:24;2.70;;;1.80;;
7203;SDS011;3643;52.460;13.322;2024-01-15T14:54:52;5.67;;;1.60;;
7203;SDS011;3643;52.460;13.322;2024-01-15T14:57:20;4.23;;;1.50;;
7203;SDS011;3643;52.460;13.322;2024-01-15T14:59:49;3.90;;;1.47;;
7203;SDS011;3643;52.460;13.322;2024-01-15T15:02:17;4.20;;;1.50;;
7203;SDS011;3643;52.460;13.322;2024-01-15T15:04:46;3.80;;;1.57;;
7203;SDS011;3643;52.460;13.322;2024-01-15T15:07:15;2.20;;;1.40;;